Time;durP1;ratioP1;P1;durP2;ratioP2;P2;SDS_P1;SDS_P2;PMS_P1;PMS_P2;Temp;Humidity;BMP_temperature;BMP_pressure;BME280_temperature;BME280_humidity;BME280_pressure;Samples;Min_cycle;Max_cycle;Signal;HPM_P1;HPM_P2
2020/12/25 00:01:17;;;;;;;1.45;0.55;;;;;;;4.26;77.45;99652.88;3831014;23;20101;-77
2020/12/25 00:02:48;;;;;;;2.72;0.98;;;;;;;4.18;77.47;99664.88;3828980;23;20005;-78
2020/12/25 00:04:19;;;;;;;0.88;0.40;;;;;;;4.22;77.41;99658.41;3831848;23;20049;-78
2020/12/25 00:05:52;;;;;;;1.27;0.40;;;;;;;4.18;77.68;99662.22;3829053;23;20032;-78
2020/12/25 00:07:23;;;;;;;1.08;0.50;;;;;;;4.12;77.75;99670.63;3830976;23;20026;-77
2020/12/25 00:08:55;;;;;;;0.80;0.40;;;;;;;4.13;77.66;99679.38;3818108;23;20018;-78
2020/12/25 00:10:27;;;;;;;1.23;0.47;;;;;;;4.18;77.61;99687.84;3819539;23;20040;-78
2020/12/25 00:11:59;;;;;;;2.05;0.63;;;;;;;4.11;77.35;99681.31;3814537;22;20033;-75
2020/12/25 00:13:32;;;;;;;2.88;0.80;;;;;;;3.82;77.53;99693.03;3821156;23;20021;-75
2020/12/25 00:15:09;;;;;;;2.55;0.70;;;;;;;3.79;77.53;99682.69;3813100;23;20465;-76
2020/12/25 00:16:43;;;;;;;1.20;0.60;;;;;;;3.88;77.39;99681.19;3821884;23;20033;-76
2020/12/25 00:18:15;;;;;;;0.93;0.40;;;;;;;3.80;77.75;99684.38;3813230;23;20018;-76
2020/12/25 00:19:48;;;;;;;3.50;0.50;;;;;;;3.88;77.57;99689.13;3818931;23;20123;-77
2020/12/25 00:21:19;;;;;;;1.55;0.50;;;;;;;3.92;77.57;99687.91;3812785;23;20017;-77
2020/12/25 00:23:00;;;;;;;0.88;0.40;;;;;;;3.87;77.65;99706.75;3820928;23;20365;-76
2020/12/25 00:25:05;;;;;;;;;;;;;;;3.81;78.57;99704.56;3812987;23;20026;-76
2020/12/25 00:26:38;;;;;;;1.40;0.50;;;;;;;3.91;78.14;99696.84;3811461;23;19923;-76
2020/12/25 00:28:09;;;;;;;1.42;0.40;;;;;;;3.92;77.74;99689.72;3819461;23;20025;-77
2020/12/25 00:29:40;;;;;;;0.30;0.30;;;;;;;3.88;77.65;99692.59;3810646;23;20378;-77
2020/12/25 00:31:11;;;;;;;1.00;0.40;;;;;;;3.87;77.37;99684.78;3820711;23;20035;-76
2020/12/25 00:32:43;;;;;;;1.75;0.60;;;;;;;3.90;77.67;99688.03;3812051;23;20045;-76
2020/12/25 00:36:48;;;;;;;1.23;0.50;;;;;;;3.71;77.22;99696.47;3826166;23;20001;-77
2020/12/25 00:38:41;;;;;;;1.17;0.40;;;;;;;3.63;78.10;99680.31;3830000;23;20021;-77
2020/12/25 00:40:13;;;;;;;1.30;0.40;;;;;;;3.69;77.98;99685.16;3821249;23;20485;-78
2020/12/25 00:41:52;;;;;;;1.20;0.50;;;;;;;3.70;77.73;99683.34;3819615;23;20025;-78
2020/12/25 00:43:55;;;;;;;1.85;0.60;;;;;;;3.55;77.18;99690.56;3834156;23;20032;-78
2020/12/25 00:45:51;;;;;;;1.67;0.60;;;;;;;3.58;77.52;99690.34;3826198;23;20021;-77
2020/12/25 00:47:23;;;;;;;1.45;0.50;;;;;;;3.45;77.97;99687.72;3834713;23;20016;-76
2020/12/25 00:48:55;;;;;;;1.02;0.60;;;;;;;3.40;77.99;99688.06;3826071;23;20017;-79
2020/12/25 00:50:32;;;;;;;1.42;0.63;;;;;;;3.44;78.01;99688.69;3835084;23;20033;-77
2020/12/25 00:54:36;;;;;;;2.47;1.00;;;;;;;3.18;78.39;99694.00;3828523;23;20022;-77
2020/12/25 00:56:09;;;;;;;2.38;0.85;;;;;;;3.22;78.71;99689.34;3834594;23;20025;-77
2020/12/25 00:57:45;;;;;;;2.10;0.80;;;;;;;3.16;78.66;99700.34;3823883;23;20018;-77
2020/12/25 00:59:29;;;;;;;2.22;0.90;;;;;;;3.26;78.87;99706.66;3821078;23;20021;-76
2020/12/25 01:01:00;;;;;;;2.10;0.80;;;;;;;3.34;78.88;99714.06;3813726;23;20111;-76
2020/12/25 01:02:34;;;;;;;2.38;0.82;;;;;;;3.33;78.53;99709.72;3810479;23;20025;-76
2020/12/25 01:04:07;;;;;;;2.78;1.00;;;;;;;3.38;78.54;99715.53;3819233;23;20362;-78
2020/12/25 01:05:40;;;;;;;2.63;1.05;;;;;;;3.36;78.33;99713.00;3810041;23;20022;-76
2020/12/25 01:07:11;;;;;;;3.05;1.10;;;;;;;3.40;78.25;99708.34;3819501;23;20021;-76
2020/12/25 01:08:43;;;;;;;1.85;0.77;;;;;;;3.39;78.33;99714.59;3810295;23;20026;-76
2020/12/25 01:10:18;;;;;;;1.58;0.70;;;;;;;3.42;78.08;99711.72;3818840;23;20026;-76
2020/12/25 01:15:10;;;;;;;2.63;1.08;;;;;;;3.31;77.74;99714.28;3830089;22;20025;-76
2020/12/25 01:16:44;;;;;;;1.80;0.75;;;;;;;3.31;78.21;99719.56;3838034;23;20412;-78
2020/12/25 01:18:16;;;;;;;2.42;0.80;;;;;;;3.30;78.25;99721.34;3828150;23;20017;-76
2020/12/25 01:19:50;;;;;;;2.17;0.90;;;;;;;3.31;78.20;99712.47;3837896;23;20229;-76
2020/12/25 01:21:24;;;;;;;2.75;0.90;;;;;;;3.35;77.91;99721.03;3829061;23;20025;-76
2020/12/25 01:22:55;;;;;;;1.45;0.60;;;;;;;3.31;77.84;99720.41;3838008;23;20370;-77
2020/12/25 01:24:28;;;;;;;1.48;0.60;;;;;;;3.26;77.83;99723.38;3829699;23;20020;-76
2020/12/25 01:25:59;;;;;;;3.08;1.30;;;;;;;3.17;77.84;99723.13;3838824;23;20068;-77
2020/12/25 01:27:30;;;;;;;1.70;0.68;;;;;;;3.16;78.10;99738.16;3829791;23;20032;-76
2020/12/25 01:29:03;;;;;;;2.28;0.90;;;;;;;3.05;78.05;99724.81;3839759;23;20025;-76
2020/12/25 01:30:36;;;;;;;1.60;0.60;;;;;;;3.02;78.18;99740.91;3830070;23;20028;-76
2020/12/25 01:32:08;;;;;;;1.83;0.60;;;;;;;3.08;78.22;99745.75;3839045;23;20453;-76
2020/12/25 01:33:40;;;;;;;1.98;0.80;;;;;;;2.97;78.44;99734.13;3828785;23;20025;-76
2020/12/25 01:35:12;;;;;;;2.17;0.80;;;;;;;3.05;78.55;99730.09;3838514;23;20021;-76
2020/12/25 01:36:52;;;;;;;2.28;0.77;;;;;;;3.14;78.10;99734.75;3830700;23;20021;-76
2020/12/25 01:38:24;;;;;;;2.95;0.98;;;;;;;3.23;78.19;99749.16;3839057;23;20051;-76
2020/12/25 01:39:55;;;;;;;1.33;0.60;;;;;;;3.23;77.83;99743.88;3828283;23;20028;-76
2020/12/25 01:41:34;;;;;;;2.10;0.80;;;;;;;3.28;77.74;99753.19;3838712;23;20047;-76
2020/12/25 01:43:05;;;;;;;1.83;0.60;;;;;;;3.38;77.94;99757.81;3833283;23;20408;-76
2020/12/25 01:44:37;;;;;;;1.60;0.70;;;;;;;3.41;77.84;99752.31;3832321;23;20033;-76
2020/12/25 01:46:15;;;;;;;2.40;0.80;;;;;;;3.44;77.93;99754.75;3839070;23;20457;-77
2020/12/25 01:47:47;;;;;;;2.25;0.90;;;;;;;3.37;78.40;99756.13;3831308;23;20040;-76
2020/12/25 01:49:22;;;;;;;2.67;1.05;;;;;;;3.25;78.05;99753.38;3840751;23;20021;-76
2020/12/25 01:50:53;;;;;;;2.58;1.00;;;;;;;3.26;78.25;99765.63;3832710;23;20490;-76
2020/12/25 01:52:26;;;;;;;2.22;1.05;;;;;;;3.19;78.24;99759.09;3838681;23;20021;-77
2020/12/25 01:54:05;;;;;;;2.20;0.98;;;;;;;3.17;78.37;99760.13;3830706;23;20024;-76
2020/12/25 01:55:41;;;;;;;2.20;0.80;;;;;;;3.17;78.54;99774.19;3839031;23;20096;-78
2020/12/25 01:57:22;;;;;;;2.03;0.95;;;;;;;3.20;78.75;99767.84;3829089;23;20409;-76
2020/12/25 01:58:53;;;;;;;;;;;;;;;3.11;79.17;99770.16;3839456;23;20036;-76
2020/12/25 02:00:33;;;;;;;2.05;0.82;;;;;;;3.14;78.46;99766.47;3833112;23;20399;-76
2020/12/25 02:02:05;;;;;;;2.55;0.85;;;;;;;3.20;78.52;99768.72;3839260;23;20025;-78
2020/12/25 02:03:38;;;;;;;2.25;0.95;;;;;;;3.19;78.48;99766.16;3830385;23;20432;-77
2020/12/25 02:05:11;;;;;;;2.53;1.00;;;;;;;3.23;78.70;99767.66;3838786;23;20029;-76
2020/12/25 02:06:44;;;;;;;3.72;1.20;;;;;;;3.26;78.91;99775.34;3830434;23;20064;-75
2020/12/25 02:08:16;;;;;;;2.67;1.35;;;;;;;3.34;78.51;99773.06;3839103;23;20036;-76
2020/12/25 02:09:48;;;;;;;2.03;0.82;;;;;;;3.40;78.55;99769.16;3831019;23;20029;-76
2020/12/25 02:11:20;;;;;;;2.85;1.05;;;;;;;3.46;78.58;99766.06;3838995;23;20021;-77
2020/12/25 02:12:52;;;;;;;3.25;1.20;;;;;;;3.43;78.47;99761.84;3831022;23;20029;-76
2020/12/25 02:14:23;;;;;;;2.47;1.05;;;;;;;3.46;78.94;99765.19;3839840;23;20024;-76
2020/12/25 02:16:01;;;;;;;2.72;1.10;;;;;;;3.41;78.31;99768.16;3832087;23;20021;-78
2020/12/25 02:17:34;;;;;;;3.17;1.42;;;;;;;3.44;78.55;99762.69;3831290;23;20073;-76
2020/12/25 02:19:06;;;;;;;3.30;1.38;;;;;;;3.53;78.33;99771.78;3839132;23;20028;-76
2020/12/25 02:20:44;;;;;;;3.50;1.20;;;;;;;3.55;78.17;99768.06;3830655;23;20020;-76
2020/12/25 02:22:21;;;;;;;2.95;1.23;;;;;;;3.67;78.22;99773.47;3838915;23;20025;-76
2020/12/25 02:23:53;;;;;;;2.90;1.10;;;;;;;3.67;78.34;99770.81;3831937;23;20076;-76
2020/12/25 02:25:25;;;;;;;3.38;1.50;;;;;;;3.70;78.32;99774.09;3840161;23;20025;-76
2020/12/25 02:26:56;;;;;;;4.03;1.65;;;;;;;3.69;78.29;99785.63;3830856;23;20025;-76
2020/12/25 02:28:41;;;;;;;3.10;1.42;;;;;;;3.70;77.79;99786.44;3838691;23;20033;-76
2020/12/25 02:30:14;;;;;;;3.58;1.25;;;;;;;3.74;78.00;99780.84;3828833;23;20025;-77
2020/12/25 02:31:46;;;;;;;3.40;1.40;;;;;;;3.87;77.86;99791.41;3838993;23;20164;-76
2020/12/25 02:33:19;;;;;;;3.25;1.60;;;;;;;3.89;77.89;99799.25;3815550;23;20021;-76
2020/12/25 02:34:53;;;;;;;3.15;1.20;;;;;;;3.87;78.09;99790.56;3837498;23;20523;-76
2020/12/25 02:36:24;;;;;;;3.83;1.70;;;;;;;3.92;77.80;99795.53;3828266;23;20488;-76
2020/12/25 02:37:57;;;;;;;4.43;1.95;;;;;;;3.88;77.75;99784.31;3838996;23;20029;-76
2020/12/25 02:39:30;;;;;;;3.90;1.50;;;;;;;3.90;77.72;99780.59;3830507;23;20478;-78
2020/12/25 02:41:03;;;;;;;4.28;1.45;;;;;;;3.94;77.55;99775.13;3838729;23;20028;-76
2020/12/25 02:42:35;;;;;;;4.00;2.00;;;;;;;3.97;77.68;99782.84;3830994;23;20025;-79
2020/12/25 02:44:16;;;;;;;3.47;1.50;;;;;;;3.97;77.55;99791.59;3839538;23;20048;-76
2020/12/25 02:45:48;;;;;;;4.68;1.83;;;;;;;3.96;77.77;99792.56;3829996;23;20075;-76
2020/12/25 02:47:19;;;;;;;4.05;1.70;;;;;;;4.01;77.66;99798.38;3838876;23;20025;-77
2020/12/25 02:48:51;;;;;;;4.97;2.35;;;;;;;3.96;77.91;99783.78;3830072;23;20096;-77
2020/12/25 02:50:23;;;;;;;4.18;1.92;;;;;;;4.00;77.79;99794.03;3838830;23;20032;-76
2020/12/25 02:52:00;;;;;;;4.90;2.67;;;;;;;4.00;77.86;99801.97;3830812;23;20021;-77
2020/12/25 02:53:32;;;;;;;4.90;2.42;;;;;;;4.04;78.05;99799.97;3826384;23;20028;-76
2020/12/25 02:55:04;;;;;;;4.70;2.47;;;;;;;4.04;78.00;99806.09;3838415;23;20028;-77
2020/12/25 02:56:35;;;;;;;5.05;2.40;;;;;;;4.10;78.02;99801.31;3830111;23;20116;-78
2020/12/25 02:58:07;;;;;;;6.70;2.35;;;;;;;4.11;78.03;99797.72;3838704;23;20048;-76
2020/12/25 02:59:39;;;;;;;3.65;1.70;;;;;;;4.17;77.98;99811.34;3830446;23;20021;-77
2020/12/25 03:01:15;;;;;;;4.38;2.40;;;;;;;4.18;77.86;99810.41;3838375;23;20032;-76
2020/12/25 03:02:47;;;;;;;5.47;3.15;;;;;;;4.19;78.07;99811.25;3829551;23;20018;-76
2020/12/25 03:04:22;;;;;;;6.40;3.13;;;;;;;4.24;78.21;99809.13;3838454;23;20152;-77
2020/12/25 03:06:01;;;;;;;5.32;2.83;;;;;;;4.31;78.20;99814.81;3830832;23;20028;-76
2020/12/25 03:07:39;;;;;;;5.38;2.38;;;;;;;4.36;78.17;99812.66;3838656;23;20549;-76
2020/12/25 03:09:14;;;;;;;6.00;3.17;;;;;;;4.33;78.34;99812.91;3830293;23;20025;-76
2020/12/25 03:10:47;;;;;;;5.90;2.38;;;;;;;4.40;78.18;99808.88;3838729;23;20398;-76
2020/12/25 03:12:18;;;;;;;6.32;3.55;;;;;;;4.39;78.67;99823.06;3830025;23;20017;-76
2020/12/25 03:13:49;;;;;;;6.40;3.45;;;;;;;4.36;78.74;99815.31;3839116;23;20024;-79
2020/12/25 03:15:38;;;;;;;;;;;;;;;4.22;79.89;99817.16;3830279;23;20021;-79
2020/12/25 03:17:10;;;;;;;7.25;3.33;;;;;;;4.28;79.47;99823.84;3838604;23;19916;-76
2020/12/25 03:18:42;;;;;;;6.97;4.00;;;;;;;4.27;79.30;99814.19;3829278;23;20378;-77
2020/12/25 03:20:15;;;;;;;7.75;4.47;;;;;;;4.31;79.49;99820.94;3838649;23;20385;-75
2020/12/25 03:21:47;;;;;;;7.18;3.60;;;;;;;4.30;79.36;99813.97;3829298;23;20366;-76
2020/12/25 03:23:21;;;;;;;6.28;3.13;;;;;;;4.34;79.44;99809.31;3838351;23;20021;-76
2020/12/25 03:24:54;;;;;;;7.68;4.10;;;;;;;4.40;79.58;99810.66;3830567;23;20044;-76
2020/12/25 03:26:27;;;;;;;7.47;4.22;;;;;;;4.40;79.27;99808.00;3838427;23;20017;-76
2020/12/25 03:27:59;;;;;;;7.75;4.15;;;;;;;4.43;79.29;99827.19;3829360;23;20021;-76
2020/12/25 03:29:45;;;;;;;6.68;3.35;;;;;;;4.48;79.52;99821.56;3831230;23;20446;-77
2020/12/25 03:31:17;;;;;;;6.95;3.38;;;;;;;4.50;79.66;99816.97;3838410;23;20025;-76
2020/12/25 03:32:52;;;;;;;6.93;3.70;;;;;;;4.50;79.60;99812.53;3829673;23;20036;-76
2020/12/25 03:34:23;;;;;;;6.20;2.75;;;;;;;4.56;79.60;99820.97;3838119;23;20083;-75
2020/12/25 03:35:57;;;;;;;7.38;3.75;;;;;;;4.59;79.31;99812.81;3830743;23;20020;-76
2020/12/25 03:37:30;;;;;;;5.78;3.20;;;;;;;4.67;79.50;99818.41;3838548;23;20021;-78
2020/12/25 03:39:01;;;;;;;8.90;3.55;;;;;;;4.65;79.38;99810.56;3829043;23;20025;-76
2020/12/25 03:40:34;;;;;;;6.95;3.50;;;;;;;4.73;79.42;99814.47;3838336;23;20071;-76
2020/12/25 03:43:46;;;;;;;8.15;4.70;;;;;;;4.73;79.45;99804.69;3851837;23;20017;-77
2020/12/25 03:45:17;;;;;;;7.80;4.97;;;;;;;4.74;79.60;99813.50;3848383;22;20016;-76
2020/12/25 03:46:50;;;;;;;6.85;4.18;;;;;;;4.77;79.39;99816.75;3857195;23;20017;-77
2020/12/25 03:48:22;;;;;;;8.35;5.22;;;;;;;4.76;79.38;99817.72;3849194;23;20483;-77
2020/12/25 03:49:58;;;;;;;8.65;5.60;;;;;;;4.60;79.48;99819.81;3856479;23;20029;-76
2020/12/25 03:51:36;;;;;;;13.82;5.28;;;;;;;4.60;79.48;99831.22;3846966;23;20025;-77
2020/12/25 03:53:07;;;;;;;8.45;5.25;;;;;;;4.62;79.65;99817.91;3856782;23;20445;-76
2020/12/25 03:54:47;;;;;;;12.50;5.60;;;;;;;4.70;79.69;99826.13;3847681;23;20476;-76
2020/12/25 03:56:26;;;;;;;8.70;4.82;;;;;;;4.71;79.52;99827.81;3856705;23;20024;-76
2020/12/25 03:58:06;;;;;;;6.97;4.22;;;;;;;4.75;79.48;99831.09;3847593;23;20021;-76
2020/12/25 03:59:38;;;;;;;9.80;6.00;;;;;;;4.74;79.65;99827.56;3849376;23;20027;-76
2020/12/25 04:01:10;;;;;;;8.88;5.22;;;;;;;4.71;79.64;99837.53;3856749;23;20025;-76
2020/12/25 04:02:42;;;;;;;9.25;6.00;;;;;;;4.59;79.62;99831.34;3849000;23;20024;-75
2020/12/25 04:04:25;;;;;;;8.85;5.43;;;;;;;4.64;79.40;99838.00;3857902;23;20020;-76
2020/12/25 04:06:18;;;;;;;12.00;6.18;;;;;;;4.60;79.81;99836.53;3850934;23;20016;-77
2020/12/25 04:07:50;;;;;;;9.75;5.45;;;;;;;4.58;80.01;99842.91;3867357;23;20028;-77
2020/12/25 04:09:21;;;;;;;10.40;6.40;;;;;;;4.58;79.97;99849.03;3859343;23;20043;-77
2020/12/25 04:12:34;;;;;;;10.65;5.20;;;;;;;4.57;79.90;99839.41;3859298;23;20046;-76
2020/12/25 04:14:16;;;;;;;10.07;5.30;;;;;;;4.51;79.76;99843.34;3870097;23;20021;-77
2020/12/25 04:15:48;;;;;;;10.50;4.95;;;;;;;4.58;79.85;99849.03;3854624;22;20500;-76
2020/12/25 04:17:19;;;;;;;10.63;6.07;;;;;;;4.46;79.61;99850.75;3857936;23;20025;-77
2020/12/25 04:18:51;;;;;;;10.88;6.20;;;;;;;4.51;79.85;99853.94;3849950;23;20039;-75
2020/12/25 04:20:22;;;;;;;9.52;5.53;;;;;;;4.47;79.67;99848.97;3857139;23;20147;-76
2020/12/25 04:22:00;;;;;;;10.73;6.35;;;;;;;4.36;79.89;99847.94;3848373;23;20017;-76
2020/12/25 04:23:31;;;;;;;10.18;5.90;;;;;;;4.43;80.06;99858.94;3846375;23;20024;-76
2020/12/25 04:25:03;;;;;;;8.48;4.45;;;;;;;4.49;80.03;99850.56;3856426;23;20445;-75
2020/12/25 04:26:35;;;;;;;11.70;5.55;;;;;;;4.46;79.65;99853.41;3849050;23;20066;-76
2020/12/25 04:28:07;;;;;;;10.00;4.93;;;;;;;4.44;79.69;99863.25;3856425;23;20028;-76
2020/12/25 04:29:41;;;;;;;11.65;5.13;;;;;;;4.58;79.32;99859.63;3848353;23;20024;-76
2020/12/25 04:31:13;;;;;;;8.77;4.35;;;;;;;4.57;79.48;99862.38;3856691;23;20024;-75
2020/12/25 04:32:45;;;;;;;8.40;4.78;;;;;;;4.55;79.29;99865.16;3849007;23;20024;-76
2020/12/25 04:34:16;;;;;;;8.32;4.53;;;;;;;4.55;79.15;99864.28;3856668;23;20040;-75
2020/12/25 04:35:47;;;;;;;10.48;5.05;;;;;;;4.59;79.10;99865.78;3846755;23;20020;-76
2020/12/25 04:37:23;;;;;;;7.38;4.20;;;;;;;4.60;78.93;99875.41;3856284;23;20020;-77
2020/12/25 04:38:57;;;;;;;7.97;4.50;;;;;;;4.55;79.24;99873.09;3846726;23;20017;-76
2020/12/25 04:40:28;;;;;;;6.78;4.32;;;;;;;4.60;79.12;99876.25;3856640;23;20335;-77
2020/12/25 04:42:00;;;;;;;7.72;4.55;;;;;;;4.59;78.87;99881.66;3847284;23;20025;-77
2020/12/25 04:43:33;;;;;;;7.75;4.07;;;;;;;4.58;79.10;99885.25;3855807;23;20024;-76
2020/12/25 04:45:04;;;;;;;7.05;4.35;;;;;;;4.59;78.79;99876.38;3847147;23;20012;-76
2020/12/25 04:46:38;;;;;;;7.00;3.97;;;;;;;4.66;78.84;99882.91;3855406;23;20032;-77
2020/12/25 04:48:10;;;;;;;7.15;4.20;;;;;;;4.61;78.71;99885.88;3847161;23;20027;-76
2020/12/25 04:49:45;;;;;;;7.22;4.10;;;;;;;4.60;78.58;99899.25;3857460;23;20043;-77
2020/12/25 04:51:30;;;;;;;8.52;4.30;;;;;;;4.53;78.81;99885.59;3849392;23;20335;-76
2020/12/25 04:53:05;;;;;;;6.32;3.30;;;;;;;4.64;78.67;99896.25;3856671;23;20488;-76
2020/12/25 04:54:42;;;;;;;7.72;4.20;;;;;;;4.64;78.43;99890.09;3848008;23;20504;-76
2020/12/25 04:56:14;;;;;;;8.75;3.10;;;;;;;4.74;78.73;99899.09;3857114;23;20329;-76
2020/12/25 04:57:46;;;;;;;6.72;3.60;;;;;;;4.83;78.50;99906.34;3849937;23;20027;-76
2020/12/25 04:59:18;;;;;;;6.10;3.08;;;;;;;4.84;78.20;99902.75;3857491;23;20771;-76
2020/12/25 05:01:05;;;;;;;6.47;3.35;;;;;;;4.83;77.88;99900.22;3847410;23;20461;-78
2020/12/25 05:02:37;;;;;;;5.32;3.50;;;;;;;4.85;78.23;99895.69;3849008;23;20028;-76
2020/12/25 05:04:19;;;;;;;6.63;3.38;;;;;;;4.88;77.85;99897.25;3856851;23;20078;-75
2020/12/25 05:05:53;;;;;;;5.47;2.70;;;;;;;4.89;78.08;99905.06;3848193;23;20095;-76
2020/12/25 05:07:26;;;;;;;6.78;3.42;;;;;;;4.77;78.35;99901.50;3855500;23;20044;-76
2020/12/25 05:08:58;;;;;;;7.22;3.30;;;;;;;4.88;78.16;99902.53;3847198;23;20027;-77
2020/12/25 05:10:38;;;;;;;5.20;2.80;;;;;;;4.87;77.82;99900.84;3856747;23;20027;-76
2020/12/25 05:12:12;;;;;;;5.75;2.92;;;;;;;4.91;77.99;99904.97;3844830;23;20020;-76
2020/12/25 05:13:44;;;;;;;5.15;2.83;;;;;;;4.90;77.80;99901.47;3837838;23;20095;-76
2020/12/25 05:15:20;;;;;;;6.75;3.35;;;;;;;4.87;77.06;99904.34;3828941;23;20017;-76
2020/12/25 05:16:59;;;;;;;6.53;3.33;;;;;;;4.90;77.21;99903.28;3838324;23;20021;-76
2020/12/25 05:18:34;;;;;;;5.53;2.53;;;;;;;4.82;77.16;99903.84;3830568;23;20357;-77
2020/12/25 05:20:07;;;;;;;5.10;2.47;;;;;;;4.88;76.90;99913.13;3838102;23;20021;-76
2020/12/25 05:21:39;;;;;;;4.30;2.28;;;;;;;4.86;77.14;99915.03;3829270;23;20358;-76
2020/12/25 05:23:30;;;;;;;5.78;2.70;;;;;;;4.79;76.35;99917.28;3841298;23;20025;-76
2020/12/25 05:25:08;;;;;;;4.53;2.25;;;;;;;4.83;76.83;99913.47;3820670;23;20502;-77
2020/12/25 05:26:41;;;;;;;7.57;2.50;;;;;;;4.87;77.12;99916.75;3820444;23;20408;-76
2020/12/25 05:28:33;;;;;;;5.45;2.75;;;;;;;4.72;77.16;99918.69;3826855;23;20028;-78
2020/12/25 05:30:06;;;;;;;5.55;2.83;;;;;;;4.71;77.38;99924.94;3819518;23;20018;-77
2020/12/25 05:31:48;;;;;;;11.48;2.20;;;;;;;4.80;77.26;99921.63;3827409;23;20446;-80
2020/12/25 05:33:22;;;;;;;5.90;2.97;;;;;;;4.92;77.21;99927.84;3818237;23;20105;-77
2020/12/25 05:34:54;;;;;;;5.75;2.92;;;;;;;4.94;77.15;99928.56;3824144;23;20056;-79
2020/12/25 05:36:30;;;;;;;4.95;2.55;;;;;;;4.93;76.75;99930.41;3820803;22;20018;-79
2020/12/25 05:38:10;;;;;;;4.65;1.98;;;;;;;4.97;76.59;99933.66;3821247;23;20032;-78
2020/12/25 05:39:41;;;;;;;4.05;2.00;;;;;;;4.96;76.55;99938.09;3820849;23;20104;-78
2020/12/25 05:41:14;;;;;;;4.13;1.98;;;;;;;5.00;76.43;99934.28;3824246;23;20026;-79
2020/12/25 05:42:46;;;;;;;5.72;2.47;;;;;;;4.95;76.14;99936.44;3822190;22;20354;-78
2020/12/25 05:44:17;;;;;;;4.32;1.98;;;;;;;4.97;76.54;99947.75;3824859;23;20518;-78
2020/12/25 05:45:48;;;;;;;5.45;2.70;;;;;;;4.96;76.59;99938.09;3832715;23;20025;-78
2020/12/25 05:47:20;;;;;;;4.50;1.98;;;;;;;5.02;76.46;99941.28;3836776;23;20055;-78
2020/12/25 05:48:52;;;;;;;4.75;2.50;;;;;;;5.02;76.48;99946.56;3832578;23;20544;-78
2020/12/25 05:50:22;;;;;;;4.80;2.33;;;;;;;5.02;76.65;99951.88;3836200;23;20032;-77
2020/12/25 05:51:54;;;;;;;4.85;2.65;;;;;;;5.02;76.77;99952.72;3832579;23;20025;-78
2020/12/25 05:53:25;;;;;;;6.35;2.60;;;;;;;5.04;76.85;99953.44;3836767;23;20100;-78
2020/12/25 05:55:00;;;;;;;6.18;3.10;;;;;;;5.07;76.63;99944.44;3834641;23;20025;-78
2020/12/25 05:56:32;;;;;;;6.03;3.60;;;;;;;5.05;76.82;99957.78;3833259;23;20017;-78
2020/12/25 05:58:06;;;;;;;6.80;3.45;;;;;;;5.08;76.74;99957.59;3836961;23;20562;-78
2020/12/25 05:59:38;;;;;;;7.38;4.35;;;;;;;5.03;76.82;99954.41;3832310;23;20075;-78
2020/12/25 06:01:10;;;;;;;7.88;4.35;;;;;;;4.97;76.94;99949.56;3837334;23;20032;-78
2020/12/25 06:02:45;;;;;;;8.63;4.10;;;;;;;4.90;77.12;99956.28;3833986;23;20036;-77
2020/12/25 06:04:16;;;;;;;6.45;3.78;;;;;;;4.90;77.18;99958.91;3834856;23;20021;-78
2020/12/25 06:05:50;;;;;;;5.70;3.28;;;;;;;4.94;77.05;99960.38;3833598;23;20025;-78
2020/12/25 06:07:24;;;;;;;6.88;3.30;;;;;;;4.92;76.97;99959.63;3836058;23;20017;-78
2020/12/25 06:08:59;;;;;;;7.70;4.78;;;;;;;4.86;77.18;99960.94;3833851;23;20052;-78
2020/12/25 06:10:31;;;;;;;6.15;3.25;;;;;;;4.89;77.20;99963.34;3837489;23;20032;-78
2020/12/25 06:12:02;;;;;;;6.70;4.20;;;;;;;4.81;77.25;99961.28;3836187;23;20049;-78
2020/12/25 06:13:40;;;;;;;8.30;4.18;;;;;;;4.74;77.39;99965.28;3854918;23;20030;-78
2020/12/25 06:15:13;;;;;;;5.63;3.25;;;;;;;4.76;77.71;99963.38;3853696;23;20516;-78
2020/12/25 06:16:51;;;;;;;8.30;4.38;;;;;;;4.68;77.42;99971.03;3855107;23;20044;-77
2020/12/25 06:18:38;;;;;;;8.13;4.55;;;;;;;4.57;77.38;99963.00;3852544;23;20036;-78
2020/12/25 06:20:14;;;;;;;7.10;4.13;;;;;;;4.52;78.02;99980.06;3855830;23;20071;-77
2020/12/25 06:21:49;;;;;;;9.27;4.20;;;;;;;4.47;77.96;99974.22;3853701;23;20024;-78
2020/12/25 06:23:22;;;;;;;5.97;3.58;;;;;;;4.55;78.05;99986.94;3855775;23;20071;-78
2020/12/25 06:24:57;;;;;;;6.95;3.85;;;;;;;4.49;78.22;99988.22;3854219;23;20020;-78
2020/12/25 06:26:30;;;;;;;6.68;3.72;;;;;;;4.54;77.83;99987.91;3856267;23;20028;-78
2020/12/25 06:28:02;;;;;;;6.53;3.88;;;;;;;4.48;78.10;99991.81;3851092;23;20155;-78
2020/12/25 06:29:32;;;;;;;8.15;3.42;;;;;;;4.48;78.36;99997.09;3852626;23;20021;-78
2020/12/25 06:31:04;;;;;;;5.95;3.33;;;;;;;4.59;78.18;99985.75;3855115;23;20031;-78
2020/12/25 06:32:48;;;;;;;7.25;3.67;;;;;;;4.62;78.06;99990.00;3856478;23;20025;-78
2020/12/25 06:34:20;;;;;;;6.70;3.58;;;;;;;4.55;78.01;99986.06;3859734;23;20025;-77
2020/12/25 06:35:57;;;;;;;7.90;4.35;;;;;;;4.53;78.18;99999.44;3857687;23;20017;-78
2020/12/25 06:37:29;;;;;;;6.57;3.63;;;;;;;4.56;78.11;99993.94;3856535;23;20032;-77
2020/12/25 06:39:04;;;;;;;8.93;4.05;;;;;;;4.50;77.92;99995.22;3853639;23;20020;-78
2020/12/25 06:40:36;;;;;;;7.35;4.10;;;;;;;4.54;78.06;99993.19;3856146;23;20021;-77
2020/12/25 06:42:07;;;;;;;8.50;4.38;;;;;;;4.52;78.12;99985.38;3852774;23;20055;-77
2020/12/25 06:43:38;;;;;;;6.28;3.90;;;;;;;4.49;78.11;100004.09;3855513;23;20078;-78
2020/12/25 06:45:12;;;;;;;7.05;3.80;;;;;;;4.48;78.13;99997.09;3852208;23;20025;-78
2020/12/25 06:46:47;;;;;;;7.43;3.78;;;;;;;4.42;78.46;100007.28;3853737;23;20052;-78
2020/12/25 06:48:21;;;;;;;7.20;4.13;;;;;;;4.39;78.72;100008.34;3851900;23;20016;-78
2020/12/25 06:49:52;;;;;;;7.32;3.90;;;;;;;4.43;78.88;100009.84;3854359;23;20020;-77
2020/12/25 06:51:27;;;;;;;6.35;3.92;;;;;;;4.52;78.40;100011.84;3851387;23;20038;-77
2020/12/25 06:53:00;;;;;;;6.18;3.38;;;;;;;4.55;78.50;100016.06;3854151;23;20027;-77
2020/12/25 06:54:39;;;;;;;8.40;4.28;;;;;;;4.50;78.44;100015.53;3850986;23;20129;-77
2020/12/25 06:56:16;;;;;;;7.30;4.25;;;;;;;4.56;78.20;100011.59;3854503;23;20136;-77
2020/12/25 06:57:52;;;;;;;7.28;4.00;;;;;;;4.50;78.43;100024.34;3853467;23;20020;-77
2020/12/25 06:59:24;;;;;;;7.55;3.47;;;;;;;4.57;78.43;100021.25;3853721;23;20020;-77
2020/12/25 07:00:56;;;;;;;6.20;3.78;;;;;;;4.54;78.63;100027.63;3852515;23;20025;-78
2020/12/25 07:02:28;;;;;;;7.55;3.55;;;;;;;4.57;78.69;100029.19;3854537;23;20024;-77
2020/12/25 07:03:59;;;;;;;7.47;3.95;;;;;;;4.47;78.96;100024.53;3853164;23;20031;-78
2020/12/25 07:05:32;;;;;;;8.02;3.65;;;;;;;4.51;78.73;100033.09;3852185;23;20020;-78
2020/12/25 07:07:06;;;;;;;6.53;3.95;;;;;;;4.58;78.74;100029.06;3854613;23;20459;-78
2020/12/25 07:08:55;;;;;;;7.13;3.35;;;;;;;4.62;78.72;100030.56;3852130;23;20024;-78
2020/12/25 07:10:27;;;;;;;7.80;3.88;;;;;;;4.56;78.45;100024.84;3854733;23;20071;-78
2020/12/25 07:12:05;;;;;;;7.00;3.70;;;;;;;4.64;78.44;100033.97;3852361;23;20024;-78
2020/12/25 07:13:37;;;;;;;6.75;3.47;;;;;;;4.72;78.36;100029.94;3854130;23;20104;-78
2020/12/25 07:15:08;;;;;;;8.63;4.13;;;;;;;4.79;78.08;100037.34;3852933;23;20024;-79
2020/12/25 07:16:39;;;;;;;7.78;3.85;;;;;;;4.82;78.07;100034.47;3853574;23;20028;-78
2020/12/25 07:18:10;;;;;;;;;;;;;;;4.72;78.13;100040.53;3852391;23;20028;-78
2020/12/25 07:19:43;;;;;;;6.18;3.20;;;;;;;4.78;78.21;100040.94;3853661;23;20237;-78
2020/12/25 07:21:15;;;;;;;5.53;2.80;;;;;;;4.86;77.86;100044.84;3852829;23;20024;-78
2020/12/25 07:22:46;;;;;;;5.78;3.20;;;;;;;4.86;77.83;100047.50;3854330;23;20021;-77
2020/12/25 07:24:18;;;;;;;5.88;3.17;;;;;;;4.86;77.74;100052.78;3851759;23;20051;-79
2020/12/25 07:25:49;;;;;;;5.50;3.28;;;;;;;4.90;77.73;100054.28;3854413;23;20020;-77
2020/12/25 07:27:21;;;;;;;8.85;3.75;;;;;;;4.94;77.47;100055.75;3847588;23;20079;-77
2020/12/25 07:28:54;;;;;;;6.85;3.33;;;;;;;4.96;77.38;100053.84;3854942;23;20103;-78
2020/12/25 07:30:25;;;;;;;5.25;2.47;;;;;;;4.97;77.39;100048.44;3851466;23;20024;-77
2020/12/25 07:31:57;;;;;;;6.18;3.20;;;;;;;4.99;77.43;100054.47;3854218;23;20350;-76
2020/12/25 07:33:28;;;;;;;7.97;3.03;;;;;;;5.00;77.29;100060.63;3852517;23;20036;-77
2020/12/25 07:35:05;;;;;;;7.18;3.20;;;;;;;5.04;76.82;100062.09;3853111;23;20016;-77
2020/12/25 07:36:37;;;;;;;5.95;2.72;;;;;;;5.05;77.26;100070.91;3851923;23;20048;-77
2020/12/25 07:38:11;;;;;;;6.50;2.90;;;;;;;5.06;77.12;100065.50;3854618;23;20351;-78
2020/12/25 07:39:43;;;;;;;8.20;3.65;;;;;;;5.08;76.89;100063.59;3851973;23;20066;-77
2020/12/25 07:41:15;;;;;;;6.63;3.33;;;;;;;5.11;76.91;100063.34;3855900;23;20464;-77